createdAt,value
2018-05-18T00:00:47.249Z,86.03
2018-05-18T00:03:15.239Z,87.02
2018-05-18T00:05:43.180Z,86.71
2018-05-18T00:08:11.146Z,86.58
2018-05-18T00:10:39.077Z,87.38
2018-05-18T00:13:07.068Z,88.60
2018-05-18T00:15:35.016Z,88.20
2018-05-18T00:18:02.924Z,87.70
2018-05-18T00:20:30.854Z,87.23
2018-05-18T00:22:58.767Z,88.10
2018-05-18T00:25:26.703Z,88.18
2018-05-18T00:27:54.623Z,88.45
2018-05-18T00:30:22.567Z,88.57
2018-05-18T00:32:51.405Z,88.12
2018-05-18T00:35:19.332Z,88.79
2018-05-18T00:37:47.250Z,88.47
2018-05-18T00:40:15.174Z,87.94
2018-05-18T00:42:43.112Z,87.48
2018-05-18T00:45:11.141Z,87.56
2018-05-18T00:47:39.051Z,87.08
2018-05-18T00:50:06.984Z,87.03
2018-05-18T00:52:34.892Z,86.85
2018-05-18T00:55:02.845Z,87.79
2018-05-18T00:57:31.649Z,87.67
2018-05-18T00:59:59.571Z,87.96
2018-05-18T01:02:27.513Z,87.60
2018-05-18T01:04:55.433Z,87.93
2018-05-18T01:07:23.366Z,88.06
2018-05-18T01:09:51.292Z,88.60
2018-05-18T01:12:19.225Z,88.49
2018-05-18T01:14:47.146Z,88.38
2018-05-18T01:17:15.093Z,88.99
2018-05-18T01:19:43.014Z,88.66
2018-05-18T01:22:10.953Z,88.10
2018-05-18T01:24:38.848Z,88.96
2018-05-18T01:27:06.776Z,89.60
2018-05-18T01:29:34.693Z,89.94
2018-05-18T01:32:02.640Z,89.62
2018-05-18T01:34:30.609Z,89.68
2018-05-18T01:36:58.864Z,89.85
2018-05-18T01:39:27.198Z,90.08
2018-05-18T01:41:55.114Z,89.75
2018-05-18T01:44:23.055Z,89.57
2018-05-18T01:46:50.982Z,89.19
2018-05-18T01:49:18.916Z,89.12
2018-05-18T01:51:47.533Z,88.91
2018-05-18T01:54:15.465Z,89.32
2018-05-18T01:56:43.379Z,88.56
2018-05-18T01:59:11.348Z,88.78
2018-05-18T02:01:39.284Z,88.81
2018-05-18T02:04:07.210Z,89.45
2018-05-18T02:06:35.132Z,89.32
2018-05-18T02:09:03.065Z,89.17
2018-05-18T02:11:30.988Z,89.00
2018-05-18T02:13:58.915Z,88.89
2018-05-18T02:16:26.841Z,88.80
2018-05-18T02:18:54.772Z,88.56
2018-05-18T02:21:22.688Z,88.56
2018-05-18T02:23:50.656Z,89.05
2018-05-18T02:26:18.727Z,88.41
2018-05-18T02:28:47.461Z,88.36
2018-05-18T02:31:15.381Z,88.61
2018-05-18T02:33:43.304Z,88.91
2018-05-18T02:36:11.225Z,89.29
2018-05-18T02:38:39.519Z,89.00
2018-05-18T02:41:07.424Z,89.51
2018-05-18T02:43:35.361Z,89.24
2018-05-18T02:46:03.288Z,89.53
2018-05-18T02:48:31.895Z,89.54
2018-05-18T02:50:59.879Z,89.84
2018-05-18T02:53:27.805Z,89.80
2018-05-18T02:55:55.752Z,89.59
2018-05-18T02:58:23.709Z,89.09
2018-05-18T03:00:51.662Z,88.99
2018-05-18T03:03:19.608Z,89.50
2018-05-18T03:05:47.551Z,89.35
2018-05-18T03:08:16.379Z,89.25
2018-05-18T03:10:44.287Z,89.63
2018-05-18T03:13:12.283Z,89.94
2018-05-18T03:15:40.212Z,89.56
2018-05-18T03:18:08.131Z,89.65
2018-05-18T03:20:36.104Z,89.71
2018-05-18T03:23:04.068Z,89.87
2018-05-18T03:25:32.005Z,89.74
2018-05-18T03:27:59.932Z,90.04
2018-05-18T03:30:27.888Z,89.67
2018-05-18T03:32:55.793Z,89.14
2018-05-18T03:35:23.720Z,89.10
2018-05-18T03:37:51.649Z,88.73
2018-05-18T03:40:19.581Z,88.93
2018-05-18T03:42:47.525Z,89.21
2018-05-18T03:45:15.447Z,89.54
2018-05-18T03:47:43.376Z,89.58
2018-05-18T03:50:11.287Z,89.34
2018-05-18T03:52:39.234Z,89.25
2018-05-18T03:55:08.084Z,89.34
2018-05-18T03:57:36.019Z,89.42
2018-05-18T04:00:03.936Z,89.15
2018-05-18T04:02:44.125Z,89.24
2018-05-18T04:05:23.804Z,88.48
2018-05-18T04:08:03.623Z,89.05
2018-05-18T04:10:31.658Z,88.85
2018-05-18T04:12:59.573Z,88.25
2018-05-18T04:15:27.491Z,88.35
2018-05-18T04:17:55.429Z,88.26
2018-05-18T04:20:23.366Z,88.47
2018-05-18T04:22:51.288Z,88.46
2018-05-18T04:25:19.241Z,88.26
2018-05-18T04:27:47.162Z,88.35
2018-05-18T04:30:15.124Z,87.35
2018-05-18T04:32:43.031Z,87.23
2018-05-18T04:35:10.969Z,87.32
2018-05-18T04:37:38.883Z,87.78
2018-05-18T04:40:06.849Z,87.45
2018-05-18T04:42:34.770Z,87.58
2018-05-18T04:45:02.697Z,86.93
2018-05-18T04:47:30.618Z,87.51
2018-05-18T04:49:58.552Z,87.80
2018-05-18T04:52:26.475Z,87.60
2018-05-18T04:54:54.424Z,87.27
2018-05-18T04:57:22.317Z,85.71
2018-05-18T04:59:50.254Z,85.90
2018-05-18T05:02:18.177Z,86.53
2018-05-18T05:04:46.090Z,86.25
2018-05-18T05:07:14.009Z,86.38
2018-05-18T05:09:41.943Z,85.47
2018-05-18T05:12:09.853Z,85.38
2018-05-18T05:14:37.791Z,84.91
2018-05-18T05:17:05.731Z,84.18
2018-05-18T05:19:33.672Z,84.24
2018-05-18T05:22:01.628Z,83.74
2018-05-18T05:24:29.560Z,84.31
2018-05-18T05:26:57.531Z,83.84
2018-05-18T05:29:25.444Z,83.24
2018-05-18T05:31:53.363Z,83.28
2018-05-18T05:34:21.283Z,83.60
2018-05-18T05:36:49.211Z,82.91
2018-05-18T05:39:17.170Z,82.62
2018-05-18T05:41:45.078Z,82.55
2018-05-18T05:44:13.005Z,83.49
2018-05-18T05:46:40.924Z,83.23
2018-05-18T05:49:08.879Z,83.10
2018-05-18T05:51:36.791Z,83.80
2018-05-18T05:54:04.784Z,83.55
2018-05-18T05:56:32.671Z,83.10
2018-05-18T05:59:00.628Z,83.22
2018-05-18T06:01:28.525Z,82.72
2018-05-18T06:03:56.461Z,82.60
2018-05-18T06:06:24.498Z,82.05
2018-05-18T06:08:52.616Z,81.86
2018-05-18T06:11:20.540Z,81.57
2018-05-18T06:13:48.452Z,81.91
2018-05-18T06:16:16.405Z,82.14
2018-05-18T06:18:44.421Z,81.94
2018-05-18T06:21:12.352Z,82.15
2018-05-18T06:23:40.869Z,82.44
2018-05-18T06:26:08.796Z,81.84
2018-05-18T06:28:36.707Z,81.60
2018-05-18T06:31:04.655Z,81.59
2018-05-18T06:33:32.583Z,81.65
2018-05-18T06:36:00.525Z,80.73
2018-05-18T06:38:28.447Z,80.75
2018-05-18T06:40:56.391Z,80.07
2018-05-18T06:43:24.311Z,80.37
2018-05-18T06:45:52.247Z,79.14
2018-05-18T06:48:20.183Z,78.74
2018-05-18T06:50:48.185Z,79.52
2018-05-18T06:53:16.095Z,79.49
2018-05-18T06:55:44.038Z,78.72
2018-05-18T06:58:11.989Z,79.53
2018-05-18T07:00:39.912Z,79.11
2018-05-18T07:03:07.839Z,78.83
2018-05-18T07:05:35.756Z,79.33
2018-05-18T07:08:03.680Z,78.66
2018-05-18T07:10:31.694Z,78.52
2018-05-18T07:12:59.539Z,77.42
2018-05-18T07:15:27.463Z,78.18
2018-05-18T07:17:55.379Z,77.74
2018-05-18T07:20:23.348Z,77.98
2018-05-18T07:22:51.276Z,77.71
2018-05-18T07:25:19.200Z,77.66
2018-05-18T07:27:47.151Z,77.77
2018-05-18T07:30:15.059Z,77.09
2018-05-18T07:32:43.013Z,76.32
2018-05-18T07:35:10.929Z,74.92
2018-05-18T07:37:40.129Z,75.34
2018-05-18T07:40:08.031Z,75.99
2018-05-18T07:42:35.975Z,76.31
2018-05-18T07:45:03.916Z,75.41
2018-05-18T07:47:31.838Z,75.02
2018-05-18T07:49:59.777Z,76.01
2018-05-18T07:52:27.718Z,75.40
2018-05-18T07:54:55.703Z,75.41
2018-05-18T07:57:23.660Z,76.01
2018-05-18T07:59:51.596Z,75.86
2018-05-18T08:02:19.514Z,75.27
2018-05-18T08:04:47.436Z,74.60
2018-05-18T08:07:15.362Z,75.29
2018-05-18T08:09:43.317Z,74.91
2018-05-18T08:12:11.246Z,73.55
2018-05-18T08:14:39.169Z,72.02
2018-05-18T08:17:07.110Z,72.55
2018-05-18T08:19:35.043Z,72.21
2018-05-18T08:22:02.952Z,72.16
2018-05-18T08:24:30.902Z,71.05
2018-05-18T08:27:10.581Z,71.65
2018-05-18T08:29:38.550Z,71.04
2018-05-18T08:32:06.440Z,71.22
2018-05-18T08:34:34.364Z,71.32
2018-05-18T08:37:02.283Z,71.31
2018-05-18T08:39:30.215Z,71.67
2018-05-18T08:41:58.133Z,71.18
2018-05-18T08:44:26.264Z,71.06
2018-05-18T08:46:54.097Z,71.89
2018-05-18T08:49:22.031Z,71.66
2018-05-18T08:51:49.957Z,72.10
2018-05-18T08:54:17.882Z,72.78
2018-05-18T08:56:45.793Z,73.08
2018-05-18T08:59:13.746Z,72.88
2018-05-18T09:01:41.694Z,74.11
2018-05-18T09:04:09.623Z,74.35
2018-05-18T09:06:37.567Z,73.38
2018-05-18T09:09:06.161Z,73.86
2018-05-18T09:11:40.005Z,73.21
2018-05-18T09:14:07.925Z,73.34
2018-05-18T09:16:36.906Z,73.54
2018-05-18T09:19:04.841Z,73.77
2018-05-18T09:21:32.754Z,73.74
2018-05-18T09:24:00.706Z,73.69
2018-05-18T09:26:28.751Z,73.61
2018-05-18T09:28:56.616Z,73.57
2018-05-18T09:31:24.531Z,73.28
2018-05-18T09:33:52.466Z,73.43
2018-05-18T09:36:20.929Z,73.77
2018-05-18T09:38:48.869Z,72.59
2018-05-18T09:41:16.818Z,71.40
2018-05-18T09:43:44.734Z,72.41
2018-05-18T09:46:12.653Z,72.37
2018-05-18T09:48:40.623Z,72.63
2018-05-18T09:51:08.560Z,72.28
2018-05-18T09:53:36.510Z,71.79
2018-05-18T09:56:04.461Z,71.77
2018-05-18T09:58:32.384Z,71.10
2018-05-18T10:01:00.302Z,69.22
2018-05-18T10:03:28.217Z,67.36
2018-05-18T10:05:56.559Z,66.63
2018-05-18T10:08:24.467Z,65.25
2018-05-18T10:10:52.411Z,66.44
2018-05-18T10:13:20.320Z,66.99
2018-05-18T10:15:48.244Z,66.57
2018-05-18T10:18:16.161Z,67.80
2018-05-18T10:20:44.162Z,68.54
2018-05-18T10:23:12.063Z,68.39
2018-05-18T10:25:39.998Z,68.28
2018-05-18T10:28:08.218Z,69.23
2018-05-18T10:30:36.132Z,70.50
2018-05-18T10:33:04.070Z,68.75
2018-05-18T10:35:31.992Z,68.71
2018-05-18T10:38:01.111Z,70.71
2018-05-18T10:40:29.718Z,70.59
2018-05-18T10:42:57.677Z,71.00
2018-05-18T10:45:25.616Z,70.96
2018-05-18T10:47:53.557Z,71.24
2018-05-18T10:50:21.493Z,72.21
2018-05-18T10:52:49.419Z,71.97
2018-05-18T10:55:17.342Z,72.32
2018-05-18T10:57:45.263Z,72.80
2018-05-18T11:00:13.181Z,72.80
2018-05-18T11:02:41.098Z,72.69
2018-05-18T11:05:09.019Z,72.80
2018-05-18T11:07:36.953Z,72.18
2018-05-18T11:10:04.883Z,71.51
2018-05-18T11:12:32.792Z,70.97
2018-05-18T11:15:00.713Z,71.45
2018-05-18T11:17:28.640Z,71.99
2018-05-18T11:19:56.660Z,71.80
2018-05-18T11:22:24.526Z,71.61
2018-05-18T11:24:52.424Z,70.82
2018-05-18T11:27:20.349Z,70.53
2018-05-18T11:29:48.395Z,68.52
2018-05-18T11:32:16.300Z,68.65
2018-05-18T11:34:44.220Z,68.77
2018-05-18T11:37:12.180Z,69.19
2018-05-18T11:39:40.135Z,69.44
2018-05-18T11:42:08.046Z,68.94
2018-05-18T11:44:36.043Z,70.25
2018-05-18T11:47:04.008Z,70.68
2018-05-18T11:49:31.912Z,70.37
2018-05-18T11:51:59.935Z,71.14
2018-05-18T11:54:27.846Z,71.73
2018-05-18T11:56:55.788Z,71.20
2018-05-18T11:59:23.743Z,70.81
2018-05-18T12:01:51.672Z,70.36
2018-05-18T12:04:19.600Z,71.46
2018-05-18T12:06:47.529Z,71.18
2018-05-18T12:09:15.477Z,70.90
2018-05-18T12:11:43.400Z,69.36
2018-05-18T12:14:11.378Z,69.52
2018-05-18T12:16:39.325Z,70.24
2018-05-18T12:19:07.263Z,70.10
2018-05-18T12:21:35.203Z,70.10
2018-05-18T12:24:03.141Z,69.79
2018-05-18T12:26:31.016Z,69.65
2018-05-18T12:28:58.950Z,69.44
2018-05-18T12:31:26.874Z,69.26
2018-05-18T12:33:54.802Z,68.42
2018-05-18T12:36:22.724Z,69.01
2018-05-18T12:38:50.789Z,70.36
2018-05-18T12:41:18.732Z,70.68
2018-05-18T12:43:46.682Z,70.46
2018-05-18T12:46:14.627Z,70.79
2018-05-18T12:48:42.521Z,71.17
2018-05-18T12:51:10.505Z,71.18
2018-05-18T12:53:38.403Z,71.58
2018-05-18T12:56:06.323Z,71.20
2018-05-18T12:58:34.248Z,70.40
2018-05-18T13:01:02.215Z,70.34
2018-05-18T13:03:30.149Z,69.86
2018-05-18T13:05:58.042Z,69.69
2018-05-18T13:08:25.969Z,69.25
2018-05-18T13:10:53.887Z,69.23
2018-05-18T13:13:21.810Z,69.29
2018-05-18T13:15:49.806Z,69.83
2018-05-18T13:18:17.663Z,69.24
2018-05-18T13:20:45.592Z,69.38
2018-05-18T13:23:13.495Z,69.54
2018-05-18T13:25:41.419Z,68.73
2018-05-18T13:28:09.557Z,69.41
2018-05-18T13:30:37.545Z,68.57
2018-05-18T13:33:05.510Z,68.87
2018-05-18T13:35:33.422Z,68.56
2018-05-18T13:38:01.372Z,68.94
2018-05-18T13:40:29.458Z,68.86
2018-05-18T13:42:57.366Z,69.27
2018-05-18T13:45:25.467Z,69.02
2018-05-18T13:47:53.383Z,68.32
2018-05-18T13:50:21.395Z,68.88
2018-05-18T13:52:49.306Z,68.84
2018-05-18T13:55:17.219Z,69.13
2018-05-18T13:57:45.250Z,69.52
2018-05-18T14:00:13.158Z,69.13
2018-05-18T14:02:41.136Z,69.16
2018-05-18T14:05:09.011Z,68.65
2018-05-18T14:07:36.957Z,68.86
2018-05-18T14:10:04.933Z,68.82
2018-05-18T14:12:32.940Z,68.30
2018-05-18T14:15:00.869Z,68.17
2018-05-18T14:17:28.788Z,68.10
2018-05-18T14:19:56.703Z,68.10
2018-05-18T14:22:24.631Z,68.53
2018-05-18T14:24:53.346Z,68.13
2018-05-18T14:27:21.257Z,68.86
2018-05-18T14:29:49.213Z,68.89
2018-05-18T14:32:17.132Z,69.06
2018-05-18T14:34:45.061Z,69.00
2018-05-18T14:37:13.092Z,68.97
2018-05-18T14:39:41.013Z,69.42
2018-05-18T14:42:08.948Z,69.25
2018-05-18T14:44:36.863Z,69.79
2018-05-18T14:47:04.776Z,69.39
2018-05-18T14:49:32.707Z,68.76
2018-05-18T14:52:00.627Z,68.41
2018-05-18T14:54:28.557Z,68.15
2018-05-18T14:56:56.478Z,68.14
2018-05-18T14:59:24.396Z,68.69
2018-05-18T15:01:52.308Z,68.43
2018-05-18T15:04:20.248Z,68.80
2018-05-18T15:06:48.189Z,68.65
2018-05-18T15:09:16.143Z,69.08
2018-05-18T15:11:44.142Z,69.15
2018-05-18T15:14:12.086Z,68.23
2018-05-18T15:16:40.048Z,69.20
2018-05-18T15:19:07.954Z,68.83
2018-05-18T15:21:35.890Z,68.36
2018-05-18T15:24:03.820Z,67.94
2018-05-18T15:26:31.834Z,67.37
2018-05-18T15:28:59.757Z,67.64
2018-05-18T15:31:27.701Z,68.39
2018-05-18T15:33:55.669Z,68.70
2018-05-18T15:36:23.662Z,68.84
2018-05-18T15:38:51.573Z,69.33
2018-05-18T15:41:19.508Z,68.76
2018-05-18T15:43:47.437Z,68.75
2018-05-18T15:46:15.331Z,69.28
2018-05-18T15:48:43.259Z,69.27
2018-05-18T15:51:11.173Z,69.66
2018-05-18T15:53:39.111Z,69.35
2018-05-18T15:56:07.047Z,68.78
2018-05-18T15:58:34.968Z,68.16
2018-05-18T16:01:02.897Z,68.65
2018-05-18T16:03:30.963Z,68.78
2018-05-18T16:05:58.883Z,68.94
2018-05-18T16:08:26.819Z,68.95
2018-05-18T16:10:54.827Z,69.21
2018-05-18T16:13:22.745Z,69.35
2018-05-18T16:15:50.701Z,69.07
2018-05-18T16:18:18.671Z,69.36
2018-05-18T16:20:46.618Z,68.94
2018-05-18T16:23:14.580Z,68.68
2018-05-18T16:25:42.496Z,68.18
2018-05-18T16:28:10.439Z,67.78
2018-05-18T16:30:38.397Z,68.17
2018-05-18T16:33:06.303Z,68.61
2018-05-18T16:35:34.212Z,69.53
2018-05-18T16:38:02.155Z,69.24
2018-05-18T16:40:30.114Z,69.15
2018-05-18T16:42:58.041Z,69.06
2018-05-18T16:45:25.980Z,68.41
2018-05-18T16:47:53.893Z,68.43
2018-05-18T16:50:21.821Z,68.52
2018-05-18T16:52:49.792Z,68.36
2018-05-18T16:55:17.680Z,68.61
2018-05-18T16:57:45.619Z,68.51
2018-05-18T17:00:13.502Z,68.99
2018-05-18T17:02:42.003Z,69.45
2018-05-18T17:05:09.974Z,69.20
2018-05-18T17:07:37.908Z,68.81
2018-05-18T17:10:05.914Z,68.05
2018-05-18T17:12:33.964Z,68.65
2018-05-18T17:15:01.759Z,68.82
2018-05-18T17:17:29.677Z,68.86
2018-05-18T17:19:57.590Z,68.51
2018-05-18T17:22:25.508Z,68.94
2018-05-18T17:24:53.437Z,69.04
2018-05-18T17:27:21.350Z,68.46
2018-05-18T17:29:49.260Z,68.66
2018-05-18T17:32:17.191Z,68.94
2018-05-18T17:34:45.123Z,69.07
2018-05-18T17:37:13.073Z,68.78
2018-05-18T17:39:40.972Z,69.11
2018-05-18T17:42:08.953Z,69.29
2018-05-18T17:44:36.827Z,69.24
2018-05-18T17:47:05.026Z,69.34
2018-05-18T17:49:32.919Z,69.69
2018-05-18T17:52:00.855Z,70.07
2018-05-18T17:54:28.769Z,70.17
2018-05-18T17:56:56.793Z,70.10
2018-05-18T17:59:24.684Z,70.14
2018-05-18T18:01:52.618Z,70.42
2018-05-18T18:04:20.529Z,70.07
2018-05-18T18:06:48.441Z,70.55
2018-05-18T18:09:16.385Z,70.55
2018-05-18T18:11:44.305Z,70.46
2018-05-18T18:14:12.273Z,70.19
2018-05-18T18:16:40.124Z,69.97
2018-05-18T18:19:08.096Z,69.79
2018-05-18T18:21:36.017Z,70.32
2018-05-18T18:24:03.931Z,70.47
2018-05-18T18:26:31.854Z,70.58
2018-05-18T18:28:59.781Z,70.48
2018-05-18T18:31:27.675Z,70.81
2018-05-18T18:33:55.613Z,71.19
2018-05-18T18:36:23.548Z,71.87
2018-05-18T18:38:52.235Z,71.78
2018-05-18T18:41:20.128Z,71.66
2018-05-18T18:43:48.040Z,71.00
2018-05-18T18:46:15.972Z,71.00
2018-05-18T18:48:43.893Z,70.64
2018-05-18T18:51:11.811Z,70.48
2018-05-18T18:53:39.791Z,70.36
2018-05-18T18:56:07.717Z,70.81
2018-05-18T18:58:35.677Z,71.11
2018-05-18T19:01:03.638Z,70.50
2018-05-18T19:03:31.534Z,70.27
2018-05-18T19:05:59.444Z,69.78
2018-05-18T19:08:27.993Z,71.10
2018-05-18T19:10:55.933Z,71.74
2018-05-18T19:13:24.859Z,71.09
2018-05-18T19:15:52.794Z,70.88
2018-05-18T19:18:20.776Z,71.00
2018-05-18T19:20:48.697Z,71.42
2018-05-18T19:23:17.471Z,71.78
2018-05-18T19:25:45.569Z,71.87
2018-05-18T19:28:13.548Z,72.41
2018-05-18T19:30:41.530Z,72.32
2018-05-18T19:33:09.491Z,72.00
2018-05-18T19:35:37.483Z,71.87
2018-05-18T19:38:05.396Z,72.37
2018-05-18T19:40:33.319Z,72.48
2018-05-18T19:43:01.239Z,72.82
2018-05-18T19:45:29.172Z,73.22
2018-05-18T19:47:57.131Z,73.47
2018-05-18T19:50:25.071Z,73.02
2018-05-18T19:52:52.971Z,73.28
2018-05-18T19:55:20.915Z,72.59
2018-05-18T19:57:48.820Z,72.89
2018-05-18T20:00:16.748Z,72.83
2018-05-18T20:02:44.668Z,73.08
2018-05-18T20:05:12.590Z,73.15
2018-05-18T20:07:40.504Z,72.85
2018-05-18T20:10:08.424Z,72.99
2018-05-18T20:12:36.447Z,73.27
2018-05-18T20:15:04.344Z,73.68
2018-05-18T20:17:32.265Z,73.45
2018-05-18T20:20:00.175Z,73.25
2018-05-18T20:22:28.177Z,73.15
2018-05-18T20:24:56.140Z,73.51
2018-05-18T20:27:24.004Z,73.28
2018-05-18T20:29:51.923Z,72.93
2018-05-18T20:32:19.838Z,72.83
2018-05-18T20:34:47.786Z,73.33
2018-05-18T20:37:15.680Z,73.36
2018-05-18T20:39:43.607Z,72.43
2018-05-18T20:42:11.521Z,72.21
2018-05-18T20:44:39.463Z,72.77
2018-05-18T20:47:07.388Z,72.66
2018-05-18T20:49:35.313Z,73.15
2018-05-18T20:52:03.228Z,73.29
2018-05-18T20:54:31.166Z,73.51
2018-05-18T20:56:59.131Z,73.73
2018-05-18T20:59:27.054Z,73.80
2018-05-18T21:01:54.972Z,74.14
2018-05-18T21:04:22.905Z,74.31
2018-05-18T21:06:50.833Z,73.98
2018-05-18T21:09:18.754Z,74.24
2018-05-18T21:11:46.714Z,74.26
2018-05-18T21:14:14.624Z,74.44
2018-05-18T21:16:42.559Z,74.76
2018-05-18T21:19:10.851Z,74.38
2018-05-18T21:21:39.347Z,74.37
2018-05-18T21:24:07.392Z,74.39
2018-05-18T21:26:35.350Z,74.80
2018-05-18T21:29:03.245Z,75.30
2018-05-18T21:31:31.168Z,75.38
2018-05-18T21:33:59.080Z,75.05
2018-05-18T21:36:27.037Z,75.18
2018-05-18T21:38:54.951Z,74.77
2018-05-18T21:41:22.863Z,74.80
2018-05-18T21:43:50.795Z,74.61
2018-05-18T21:46:18.731Z,75.19
2018-05-18T21:48:47.397Z,75.15
2018-05-18T21:51:15.321Z,75.06
2018-05-18T21:53:43.232Z,75.50
2018-05-18T21:56:11.162Z,75.40
2018-05-18T21:58:39.172Z,75.48
2018-05-18T22:01:07.028Z,75.27
2018-05-18T22:03:34.973Z,75.66
2018-05-18T22:06:02.892Z,76.08
2018-05-18T22:08:31.523Z,76.44
2018-05-18T22:10:59.440Z,76.37
2018-05-18T22:13:27.357Z,76.09
2018-05-18T22:15:55.282Z,76.23
2018-05-18T22:18:23.188Z,76.10
2018-05-18T22:20:51.985Z,76.07
2018-05-18T22:23:19.990Z,76.08
2018-05-18T22:25:48.027Z,76.70
2018-05-18T22:28:15.952Z,76.69
2018-05-18T22:30:43.862Z,76.86
2018-05-18T22:33:11.791Z,76.96
2018-05-18T22:35:39.709Z,76.98
2018-05-18T22:38:07.656Z,77.16
2018-05-18T22:40:35.571Z,76.28
2018-05-18T22:43:03.528Z,75.62
2018-05-18T22:45:31.445Z,75.36
2018-05-18T22:47:59.368Z,75.31
2018-05-18T22:50:27.321Z,75.76
2018-05-18T22:52:55.233Z,75.91
2018-05-18T22:55:23.164Z,76.81
2018-05-18T22:57:51.091Z,77.34
2018-05-18T23:00:26.421Z,77.43
2018-05-18T23:02:54.423Z,77.68
2018-05-18T23:05:22.349Z,78.25
2018-05-18T23:07:50.264Z,78.11
2018-05-18T23:10:18.225Z,78.05
2018-05-18T23:12:46.155Z,78.44
2018-05-18T23:15:14.126Z,78.13
2018-05-18T23:17:42.046Z,78.10
2018-05-18T23:20:09.998Z,78.08
2018-05-18T23:22:37.933Z,78.21
2018-05-18T23:25:05.867Z,78.50
2018-05-18T23:27:33.776Z,78.65
2018-05-18T23:30:01.697Z,78.69
2018-05-18T23:32:29.639Z,78.75
2018-05-18T23:34:57.573Z,78.73
2018-05-18T23:37:25.503Z,78.76
2018-05-18T23:39:53.467Z,78.88
2018-05-18T23:42:21.380Z,79.27
2018-05-18T23:44:50.158Z,79.52
2018-05-18T23:47:18.070Z,79.75
2018-05-18T23:49:46.017Z,80.57
2018-05-18T23:52:14.126Z,81.15
2018-05-18T23:54:42.056Z,81.03
2018-05-18T23:57:10.029Z,81.65
2018-05-18T23:59:37.953Z,82.03
